sensor_id;sensor_type;location;lat;lon;timestamp;temperature;humidity
21570;DHT22;57598;50.888;4.746;2023-04-03T00:01:49;3.00;99.90
21570;DHT22;57598;50.888;4.746;2023-04-03T00:04:16;2.90;99.90
21570;DHT22;57598;50.888;4.746;2023-04-03T00:06:43;3.00;99.90
21570;DHT22;57598;50.888;4.746;2023-04-03T00:09:10;2.90;99.90
21570;DHT22;57598;50.888;4.746;2023-04-03T00:11:37;2.80;99.90
21570;DHT22;57598;50.888;4.746;2023-04-03T00:14:05;2.90;99.90
21570;DHT22;57598;50.888;4.746;2023-04-03T00:16:32;2.90;99.90
21570;DHT22;57598;50.888;4.746;2023-04-03T00:19:00;2.90;99.90
21570;DHT22;57598;50.888;4.746;2023-04-03T00:21:27;2.90;99.90
21570;DHT22;57598;50.888;4.746;2023-04-03T00:23:55;2.90;99.90
21570;DHT22;57598;50.888;4.746;2023-04-03T00:26:22;2.90;99.90
21570;DHT22;57598;50.888;4.746;2023-04-03T00:28:49;2.90;99.90
21570;DHT22;57598;50.888;4.746;2023-04-03T00:31:16;2.90;99.90
21570;DHT22;57598;50.888;4.746;2023-04-03T00:33:44;2.90;99.90
21570;DHT22;57598;50.888;4.746;2023-04-03T00:36:12;2.90;99.90
21570;DHT22;57598;50.888;4.746;2023-04-03T00:38:40;2.90;99.90
21570;DHT22;57598;50.888;4.746;2023-04-03T00:41:07;2.90;99.90
21570;DHT22;57598;50.888;4.746;2023-04-03T00:43:34;2.90;99.90
21570;DHT22;57598;50.888;4.746;2023-04-03T00:46:02;2.90;99.90
21570;DHT22;57598;50.888;4.746;2023-04-03T00:48:31;3.00;99.90
21570;DHT22;57598;50.888;4.746;2023-04-03T00:50:59;2.90;99.90
21570;DHT22;57598;50.888;4.746;2023-04-03T00:53:33;2.80;99.90
21570;DHT22;57598;50.888;4.746;2023-04-03T00:56:06;2.80;99.90
21570;DHT22;57598;50.888;4.746;2023-04-03T00:58:38;2.80;99.90
21570;DHT22;57598;50.888;4.746;2023-04-03T06:21:16;3.60;99.90
21570;DHT22;57598;50.888;4.746;2023-04-03T06:23:43;3.90;99.90
21570;DHT22;57598;50.888;4.746;2023-04-03T06:26:10;4.00;99.90
21570;DHT22;57598;50.888;4.746;2023-04-03T06:28:37;4.10;99.90
21570;DHT22;57598;50.888;4.746;2023-04-03T06:31:04;4.20;99.90
21570;DHT22;57598;50.888;4.746;2023-04-03T06:33:31;4.30;99.90
21570;DHT22;57598;50.888;4.746;2023-04-03T06:35:59;4.30;99.90
21570;DHT22;57598;50.888;4.746;2023-04-03T06:38:27;4.30;99.90
21570;DHT22;57598;50.888;4.746;2023-04-03T06:40:54;4.40;99.90
21570;DHT22;57598;50.888;4.746;2023-04-03T06:43:21;4.50;99.90
21570;DHT22;57598;50.888;4.746;2023-04-03T06:45:48;4.50;99.90
21570;DHT22;57598;50.888;4.746;2023-04-03T06:48:16;4.60;99.90
21570;DHT22;57598;50.888;4.746;2023-04-03T06:50:43;4.70;99.90
21570;DHT22;57598;50.888;4.746;2023-04-03T06:53:10;4.70;99.90
21570;DHT22;57598;50.888;4.746;2023-04-03T06:55:39;4.80;99.90
21570;DHT22;57598;50.888;4.746;2023-04-03T06:58:06;5.00;99.90
21570;DHT22;57598;50.888;4.746;2023-04-03T07:00:34;5.20;99.90
21570;DHT22;57598;50.888;4.746;2023-04-03T07:03:01;5.30;99.90
21570;DHT22;57598;50.888;4.746;2023-04-03T07:05:28;5.50;99.90
21570;DHT22;57598;50.888;4.746;2023-04-03T07:07:56;5.90;99.90
21570;DHT22;57598;50.888;4.746;2023-04-03T07:10:23;6.20;99.90
21570;DHT22;57598;50.888;4.746;2023-04-03T07:12:51;6.60;99.90
21570;DHT22;57598;50.888;4.746;2023-04-03T07:15:18;6.70;99.90
21570;DHT22;57598;50.888;4.746;2023-04-03T07:17:45;7.20;99.90
21570;DHT22;57598;50.888;4.746;2023-04-03T07:20:12;7.50;99.90
21570;DHT22;57598;50.888;4.746;2023-04-03T07:22:40;7.60;99.90
21570;DHT22;57598;50.888;4.746;2023-04-03T07:25:07;8.00;99.90
21570;DHT22;57598;50.888;4.746;2023-04-03T07:27:36;8.40;99.90
21570;DHT22;57598;50.888;4.746;2023-04-03T07:37:28;9.10;99.90
21570;DHT22;57598;50.888;4.746;2023-04-03T07:39:55;9.40;99.90
21570;DHT22;57598;50.888;4.746;2023-04-03T07:42:24;9.60;99.90
21570;DHT22;57598;50.888;4.746;2023-04-03T07:44:52;9.70;99.90
21570;DHT22;57598;50.888;4.746;2023-04-03T07:47:19;10.10;99.90
21570;DHT22;57598;50.888;4.746;2023-04-03T07:49:46;10.40;99.90
21570;DHT22;57598;50.888;4.746;2023-04-03T07:52:13;10.40;99.90
21570;DHT22;57598;50.888;4.746;2023-04-03T08:07:51;11.50;99.90
21570;DHT22;57598;50.888;4.746;2023-04-03T08:10:18;11.60;99.90
21570;DHT22;57598;50.888;4.746;2023-04-03T08:12:46;11.60;99.90
21570;DHT22;57598;50.888;4.746;2023-04-03T08:15:13;12.00;99.90
21570;DHT22;57598;50.888;4.746;2023-04-03T08:17:40;12.00;99.90
21570;DHT22;57598;50.888;4.746;2023-04-03T08:20:10;12.20;99.90
21570;DHT22;57598;50.888;4.746;2023-04-03T08:22:37;12.50;99.90
21570;DHT22;57598;50.888;4.746;2023-04-03T08:25:06;13.10;99.90
21570;DHT22;57598;50.888;4.746;2023-04-03T08:27:33;13.40;99.90
21570;DHT22;57598;50.888;4.746;2023-04-03T08:30:00;13.20;99.90
21570;DHT22;57598;50.888;4.746;2023-04-03T08:32:27;13.20;99.90
21570;DHT22;57598;50.888;4.746;2023-04-03T08:34:55;13.50;99.90
21570;DHT22;57598;50.888;4.746;2023-04-03T08:37:21;13.60;99.90
21570;DHT22;57598;50.888;4.746;2023-04-03T08:39:48;13.90;99.90
21570;DHT22;57598;50.888;4.746;2023-04-03T08:42:26;14.00;99.90
21570;DHT22;57598;50.888;4.746;2023-04-03T08:45:00;14.10;99.00
21570;DHT22;57598;50.888;4.746;2023-04-03T08:47:36;14.00;98.40
21570;DHT22;57598;50.888;4.746;2023-04-03T08:50:06;14.10;97.00
21570;DHT22;57598;50.888;4.746;2023-04-03T08:52:36;14.40;96.60
21570;DHT22;57598;50.888;4.746;2023-04-03T08:55:07;14.70;97.10
21570;DHT22;57598;50.888;4.746;2023-04-03T08:57:44;15.10;93.90
21570;DHT22;57598;50.888;4.746;2023-04-03T09:00:17;14.80;92.80
21570;DHT22;57598;50.888;4.746;2023-04-03T09:02:46;15.40;94.00
21570;DHT22;57598;50.888;4.746;2023-04-03T09:05:16;15.80;92.40
21570;DHT22;57598;50.888;4.746;2023-04-03T09:07:45;15.90;91.70
21570;DHT22;57598;50.888;4.746;2023-04-03T09:10:14;15.70;91.90
21570;DHT22;57598;50.888;4.746;2023-04-03T09:12:46;15.90;90.60
21570;DHT22;57598;50.888;4.746;2023-04-03T09:15:18;16.40;90.40
21570;DHT22;57598;50.888;4.746;2023-04-03T09:17:57;16.50;87.60
21570;DHT22;57598;50.888;4.746;2023-04-03T09:20:35;16.60;87.20
21570;DHT22;57598;50.888;4.746;2023-04-03T09:23:12;16.60;88.70
21570;DHT22;57598;50.888;4.746;2023-04-03T09:25:40;16.80;84.20
21570;DHT22;57598;50.888;4.746;2023-04-03T09:28:09;16.60;82.10
21570;DHT22;57598;50.888;4.746;2023-04-03T09:30:36;16.90;82.80
21570;DHT22;57598;50.888;4.746;2023-04-03T09:33:04;17.10;84.30
21570;DHT22;57598;50.888;4.746;2023-04-03T09:35:34;17.50;79.30
21570;DHT22;57598;50.888;4.746;2023-04-03T09:38:14;17.60;80.60
21570;DHT22;57598;50.888;4.746;2023-04-03T09:40:42;17.70;79.80
21570;DHT22;57598;50.888;4.746;2023-04-03T09:43:35;17.80;77.20
21570;DHT22;57598;50.888;4.746;2023-04-03T09:46:32;17.40;76.90
21570;DHT22;57598;50.888;4.746;2023-04-03T09:49:02;17.90;77.90
21570;DHT22;57598;50.888;4.746;2023-04-03T09:51:30;18.10;77.00
21570;DHT22;57598;50.888;4.746;2023-04-03T09:53:57;18.50;74.40
21570;DHT22;57598;50.888;4.746;2023-04-03T09:56:26;18.50;72.80
21570;DHT22;57598;50.888;4.746;2023-04-03T09:59:12;18.20;71.60
21570;DHT22;57598;50.888;4.746;2023-04-03T10:01:43;18.80;72.80
21570;DHT22;57598;50.888;4.746;2023-04-03T10:04:22;18.70;70.50
21570;DHT22;57598;50.888;4.746;2023-04-03T10:06:51;18.50;68.30
21570;DHT22;57598;50.888;4.746;2023-04-03T10:09:21;18.30;70.70
21570;DHT22;57598;50.888;4.746;2023-04-03T10:12:02;18.00;70.60
21570;DHT22;57598;50.888;4.746;2023-04-03T10:14:33;18.00;68.40
21570;DHT22;57598;50.888;4.746;2023-04-03T10:17:15;17.90;66.90
21570;DHT22;57598;50.888;4.746;2023-04-03T10:19:46;18.20;66.50
21570;DHT22;57598;50.888;4.746;2023-04-03T10:22:29;18.80;65.90
21570;DHT22;57598;50.888;4.746;2023-04-03T10:25:07;19.40;64.40
21570;DHT22;57598;50.888;4.746;2023-04-03T10:27:52;19.50;63.70
21570;DHT22;57598;50.888;4.746;2023-04-03T10:30:31;19.50;59.70
21570;DHT22;57598;50.888;4.746;2023-04-03T10:33:09;19.10;58.70
21570;DHT22;57598;50.888;4.746;2023-04-03T10:35:44;18.80;58.90
21570;DHT22;57598;50.888;4.746;2023-04-03T10:38:21;18.80;59.70
21570;DHT22;57598;50.888;4.746;2023-04-03T10:40:57;19.10;57.80
21570;DHT22;57598;50.888;4.746;2023-04-03T10:43:33;18.60;58.10
21570;DHT22;57598;50.888;4.746;2023-04-03T10:46:11;18.90;58.20
21570;DHT22;57598;50.888;4.746;2023-04-03T10:48:53;19.30;56.90
21570;DHT22;57598;50.888;4.746;2023-04-03T10:51:29;19.90;57.10
21570;DHT22;57598;50.888;4.746;2023-04-03T10:54:07;19.30;52.60
21570;DHT22;57598;50.888;4.746;2023-04-03T10:56:38;18.60;53.10
21570;DHT22;57598;50.888;4.746;2023-04-03T10:59:17;19.10;54.40
21570;DHT22;57598;50.888;4.746;2023-04-03T11:01:51;18.90;53.30
21570;DHT22;57598;50.888;4.746;2023-04-03T11:04:21;18.70;55.30
21570;DHT22;57598;50.888;4.746;2023-04-03T11:06:55;18.80;52.00
21570;DHT22;57598;50.888;4.746;2023-04-03T11:09:27;19.30;54.20
21570;DHT22;57598;50.888;4.746;2023-04-03T11:12:00;19.10;51.80
21570;DHT22;57598;50.888;4.746;2023-04-03T11:14:31;18.50;51.30
21570;DHT22;57598;50.888;4.746;2023-04-03T11:17:11;18.70;51.30
21570;DHT22;57598;50.888;4.746;2023-04-03T11:19:47;19.10;48.90
21570;DHT22;57598;50.888;4.746;2023-04-03T11:22:22;18.80;48.90
21570;DHT22;57598;50.888;4.746;2023-04-03T11:24:57;18.60;48.50
21570;DHT22;57598;50.888;4.746;2023-04-03T11:27:27;18.50;46.30
21570;DHT22;57598;50.888;4.746;2023-04-03T11:29:59;19.00;45.80
21570;DHT22;57598;50.888;4.746;2023-04-03T11:35:39;20.50;47.30
21570;DHT22;57598;50.888;4.746;2023-04-03T11:38:17;20.10;41.80
21570;DHT22;57598;50.888;4.746;2023-04-03T11:40:47;19.30;44.60
21570;DHT22;57598;50.888;4.746;2023-04-03T11:43:23;19.50;45.40
21570;DHT22;57598;50.888;4.746;2023-04-03T11:45:54;19.60;45.40
21570;DHT22;57598;50.888;4.746;2023-04-03T11:48:45;19.30;44.40
21570;DHT22;57598;50.888;4.746;2023-04-03T11:51:39;19.60;42.50
21570;DHT22;57598;50.888;4.746;2023-04-03T11:54:35;19.00;43.50
21570;DHT22;57598;50.888;4.746;2023-04-03T12:03:29;20.20;39.50
21570;DHT22;57598;50.888;4.746;2023-04-03T12:06:41;19.60;41.30
21570;DHT22;57598;50.888;4.746;2023-04-03T12:08:47;19.70;42.90
21570;DHT22;57598;50.888;4.746;2023-04-03T12:11:24;20.50;40.90
21570;DHT22;57598;50.888;4.746;2023-04-03T12:14:04;21.00;40.80
21570;DHT22;57598;50.888;4.746;2023-04-03T12:16:43;20.00;39.50
21570;DHT22;57598;50.888;4.746;2023-04-03T12:19:35;20.20;40.00
21570;DHT22;57598;50.888;4.746;2023-04-03T12:22:13;19.80;39.30
21570;DHT22;57598;50.888;4.746;2023-04-03T12:24:43;19.30;39.30
21570;DHT22;57598;50.888;4.746;2023-04-03T12:27:25;19.50;40.80
21570;DHT22;57598;50.888;4.746;2023-04-03T12:29:58;19.30;37.90
21570;DHT22;57598;50.888;4.746;2023-04-03T12:32:40;20.10;38.40
21570;DHT22;57598;50.888;4.746;2023-04-03T12:35:19;20.40;38.60
21570;DHT22;57598;50.888;4.746;2023-04-03T12:41:07;19.70;38.30
21570;DHT22;57598;50.888;4.746;2023-04-03T12:43:50;20.20;36.20
21570;DHT22;57598;50.888;4.746;2023-04-03T12:46:23;20.00;36.60
21570;DHT22;57598;50.888;4.746;2023-04-03T12:48:52;19.80;37.00
21570;DHT22;57598;50.888;4.746;2023-04-03T12:51:25;19.70;39.60
21570;DHT22;57598;50.888;4.746;2023-04-03T12:53:57;19.60;38.00
21570;DHT22;57598;50.888;4.746;2023-04-03T12:56:29;20.40;38.10
21570;DHT22;57598;50.888;4.746;2023-04-03T12:59:13;19.80;38.60
21570;DHT22;57598;50.888;4.746;2023-04-03T13:01:41;19.90;39.10
21570;DHT22;57598;50.888;4.746;2023-04-03T13:04:10;19.60;38.60
21570;DHT22;57598;50.888;4.746;2023-04-03T13:06:39;19.40;40.00
21570;DHT22;57598;50.888;4.746;2023-04-03T13:09:19;19.70;41.40
21570;DHT22;57598;50.888;4.746;2023-04-03T13:11:50;20.00;39.90
21570;DHT22;57598;50.888;4.746;2023-04-03T13:14:20;20.60;39.70
21570;DHT22;57598;50.888;4.746;2023-04-03T13:16:54;20.20;39.00
21570;DHT22;57598;50.888;4.746;2023-04-03T13:19:24;21.00;40.00
21570;DHT22;57598;50.888;4.746;2023-04-03T13:21:56;20.70;37.40
21570;DHT22;57598;50.888;4.746;2023-04-03T13:24:24;20.00;39.10
21570;DHT22;57598;50.888;4.746;2023-04-03T13:26:53;19.70;39.90
21570;DHT22;57598;50.888;4.746;2023-04-03T13:29:23;19.20;40.20
21570;DHT22;57598;50.888;4.746;2023-04-03T13:31:53;19.80;42.40
21570;DHT22;57598;50.888;4.746;2023-04-03T13:34:23;19.90;36.90
21570;DHT22;57598;50.888;4.746;2023-04-03T13:36:57;19.50;37.90
21570;DHT22;57598;50.888;4.746;2023-04-03T13:39:25;19.90;37.50
21570;DHT22;57598;50.888;4.746;2023-04-03T13:41:55;20.10;38.00
21570;DHT22;57598;50.888;4.746;2023-04-03T13:44:32;19.50;37.60
21570;DHT22;57598;50.888;4.746;2023-04-03T13:47:01;19.50;37.20
21570;DHT22;57598;50.888;4.746;2023-04-03T13:49:43;18.90;38.30
21570;DHT22;57598;50.888;4.746;2023-04-03T13:52:25;19.60;39.60
21570;DHT22;57598;50.888;4.746;2023-04-03T13:54:55;19.70;39.10
21570;DHT22;57598;50.888;4.746;2023-04-03T13:57:24;19.60;39.20
21570;DHT22;57598;50.888;4.746;2023-04-03T13:59:51;18.90;37.00
21570;DHT22;57598;50.888;4.746;2023-04-03T14:02:22;19.20;38.60
21570;DHT22;57598;50.888;4.746;2023-04-03T14:04:53;18.80;37.40
21570;DHT22;57598;50.888;4.746;2023-04-03T14:07:24;18.60;37.50
21570;DHT22;57598;50.888;4.746;2023-04-03T14:09:52;18.60;38.80
21570;DHT22;57598;50.888;4.746;2023-04-03T14:12:27;18.70;39.20
21570;DHT22;57598;50.888;4.746;2023-04-03T14:14:55;18.30;38.80
21570;DHT22;57598;50.888;4.746;2023-04-03T14:17:24;18.70;38.40
21570;DHT22;57598;50.888;4.746;2023-04-03T14:19:52;18.90;37.80
21570;DHT22;57598;50.888;4.746;2023-04-03T14:22:22;18.20;37.10
21570;DHT22;57598;50.888;4.746;2023-04-03T14:24:50;18.00;38.60
21570;DHT22;57598;50.888;4.746;2023-04-03T14:27:20;18.20;39.80
21570;DHT22;57598;50.888;4.746;2023-04-03T14:29:50;18.50;40.60
21570;DHT22;57598;50.888;4.746;2023-04-03T14:32:20;18.10;41.40
21570;DHT22;57598;50.888;4.746;2023-04-03T14:34:48;18.60;42.70
21570;DHT22;57598;50.888;4.746;2023-04-03T14:37:19;18.80;41.80
21570;DHT22;57598;50.888;4.746;2023-04-03T14:39:48;18.40;41.20
21570;DHT22;57598;50.888;4.746;2023-04-03T14:42:17;18.00;41.90
21570;DHT22;57598;50.888;4.746;2023-04-03T14:44:44;18.40;41.60
21570;DHT22;57598;50.888;4.746;2023-04-03T14:47:14;18.30;41.40
21570;DHT22;57598;50.888;4.746;2023-04-03T14:49:42;18.40;42.00
21570;DHT22;57598;50.888;4.746;2023-04-03T14:52:18;18.10;42.30
21570;DHT22;57598;50.888;4.746;2023-04-03T14:54:45;18.00;42.90
21570;DHT22;57598;50.888;4.746;2023-04-03T14:57:14;18.10;42.80
21570;DHT22;57598;50.888;4.746;2023-04-03T14:59:42;17.80;41.60
21570;DHT22;57598;50.888;4.746;2023-04-03T15:02:26;16.90;42.90
21570;DHT22;57598;50.888;4.746;2023-04-03T15:04:53;16.90;44.50
21570;DHT22;57598;50.888;4.746;2023-04-03T15:07:21;17.20;43.10
21570;DHT22;57598;50.888;4.746;2023-04-03T15:09:48;17.70;43.10
21570;DHT22;57598;50.888;4.746;2023-04-03T15:12:16;17.60;43.70
21570;DHT22;57598;50.888;4.746;2023-04-03T15:14:43;17.40;44.00
21570;DHT22;57598;50.888;4.746;2023-04-03T15:17:17;16.90;44.90
21570;DHT22;57598;50.888;4.746;2023-04-03T15:19:44;17.00;45.60
21570;DHT22;57598;50.888;4.746;2023-04-03T15:22:14;17.20;45.00
21570;DHT22;57598;50.888;4.746;2023-04-03T15:24:41;16.50;44.90
21570;DHT22;57598;50.888;4.746;2023-04-03T15:27:08;16.30;45.60
21570;DHT22;57598;50.888;4.746;2023-04-03T15:29:36;16.20;45.30
21570;DHT22;57598;50.888;4.746;2023-04-03T15:32:03;16.20;46.80
21570;DHT22;57598;50.888;4.746;2023-04-03T15:34:32;16.30;45.80
21570;DHT22;57598;50.888;4.746;2023-04-03T15:36:59;16.30;45.90
21570;DHT22;57598;50.888;4.746;2023-04-03T15:39:26;16.90;46.40
21570;DHT22;57598;50.888;4.746;2023-04-03T15:41:54;16.80;46.00
21570;DHT22;57598;50.888;4.746;2023-04-03T15:44:21;16.90;45.00
21570;DHT22;57598;50.888;4.746;2023-04-03T15:46:49;16.90;45.20
21570;DHT22;57598;50.888;4.746;2023-04-03T15:49:17;16.60;45.60
21570;DHT22;57598;50.888;4.746;2023-04-03T15:51:45;16.50;45.40
21570;DHT22;57598;50.888;4.746;2023-04-03T15:54:12;16.00;46.00
21570;DHT22;57598;50.888;4.746;2023-04-03T15:56:40;15.50;47.90
21570;DHT22;57598;50.888;4.746;2023-04-03T15:59:07;15.20;48.40
21570;DHT22;57598;50.888;4.746;2023-04-03T16:01:34;14.90;49.50
21570;DHT22;57598;50.888;4.746;2023-04-03T16:04:01;14.60;50.30
21570;DHT22;57598;50.888;4.746;2023-04-03T16:06:28;14.30;50.40
21570;DHT22;57598;50.888;4.746;2023-04-03T16:08:58;14.10;52.10
21570;DHT22;57598;50.888;4.746;2023-04-03T16:11:26;14.10;52.30
21570;DHT22;57598;50.888;4.746;2023-04-03T16:13:53;13.90;51.70
21570;DHT22;57598;50.888;4.746;2023-04-03T16:16:21;13.90;51.00
21570;DHT22;57598;50.888;4.746;2023-04-03T16:18:48;13.50;52.30
21570;DHT22;57598;50.888;4.746;2023-04-03T16:21:17;13.30;51.90
21570;DHT22;57598;50.888;4.746;2023-04-03T16:23:44;13.30;52.60
21570;DHT22;57598;50.888;4.746;2023-04-03T16:26:13;13.30;53.80
21570;DHT22;57598;50.888;4.746;2023-04-03T16:28:41;13.30;53.50
21570;DHT22;57598;50.888;4.746;2023-04-03T16:31:08;13.20;53.40
21570;DHT22;57598;50.888;4.746;2023-04-03T16:33:35;13.00;53.60
21570;DHT22;57598;50.888;4.746;2023-04-03T16:36:03;12.90;53.50
21570;DHT22;57598;50.888;4.746;2023-04-03T16:38:30;12.90;54.20
21570;DHT22;57598;50.888;4.746;2023-04-03T16:40:57;12.90;54.40
21570;DHT22;57598;50.888;4.746;2023-04-03T16:43:29;13.00;54.40
21570;DHT22;57598;50.888;4.746;2023-04-03T16:45:56;12.70;54.10
21570;DHT22;57598;50.888;4.746;2023-04-03T16:48:23;12.70;54.20
21570;DHT22;57598;50.888;4.746;2023-04-03T16:50:50;12.70;54.60
21570;DHT22;57598;50.888;4.746;2023-04-03T16:53:18;12.90;55.30
21570;DHT22;57598;50.888;4.746;2023-04-03T16:55:46;12.70;53.70
21570;DHT22;57598;50.888;4.746;2023-04-03T16:58:13;12.50;54.20
21570;DHT22;57598;50.888;4.746;2023-04-03T17:00:42;12.60;55.20
21570;DHT22;57598;50.888;4.746;2023-04-03T17:03:09;12.60;54.60
21570;DHT22;57598;50.888;4.746;2023-04-03T17:05:36;12.50;55.00
21570;DHT22;57598;50.888;4.746;2023-04-03T17:08:03;12.40;56.00
21570;DHT22;57598;50.888;4.746;2023-04-03T17:10:30;12.30;55.60
21570;DHT22;57598;50.888;4.746;2023-04-03T17:12:59;12.10;55.60
21570;DHT22;57598;50.888;4.746;2023-04-03T17:15:26;11.90;55.50
21570;DHT22;57598;50.888;4.746;2023-04-03T17:17:54;11.80;56.20
21570;DHT22;57598;50.888;4.746;2023-04-03T17:20:21;11.80;56.70
21570;DHT22;57598;50.888;4.746;2023-04-03T17:22:48;11.70;56.20
21570;DHT22;57598;50.888;4.746;2023-04-03T17:25:16;11.60;56.60
21570;DHT22;57598;50.888;4.746;2023-04-03T17:27:43;11.60;57.10
21570;DHT22;57598;50.888;4.746;2023-04-03T17:30:10;11.50;56.70
21570;DHT22;57598;50.888;4.746;2023-04-03T17:32:38;11.60;57.20
21570;DHT22;57598;50.888;4.746;2023-04-03T17:35:07;11.50;57.60
21570;DHT22;57598;50.888;4.746;2023-04-03T17:37:34;11.40;57.50
21570;DHT22;57598;50.888;4.746;2023-04-03T17:40:01;11.40;57.70
21570;DHT22;57598;50.888;4.746;2023-04-03T17:42:28;11.20;57.00
21570;DHT22;57598;50.888;4.746;2023-04-03T17:44:57;11.10;57.40
21570;DHT22;57598;50.888;4.746;2023-04-03T17:47:25;11.00;57.60
21570;DHT22;57598;50.888;4.746;2023-04-03T17:49:52;10.90;57.60
21570;DHT22;57598;50.888;4.746;2023-04-03T17:52:21;10.90;57.80
21570;DHT22;57598;50.888;4.746;2023-04-03T17:54:50;10.90;58.30
21570;DHT22;57598;50.888;4.746;2023-04-03T17:57:16;10.80;58.40
21570;DHT22;57598;50.888;4.746;2023-04-03T17:59:43;10.70;58.30
21570;DHT22;57598;50.888;4.746;2023-04-03T18:02:11;10.60;58.70
21570;DHT22;57598;50.888;4.746;2023-04-03T18:04:37;10.60;58.60
21570;DHT22;57598;50.888;4.746;2023-04-03T18:07:05;10.50;58.80
21570;DHT22;57598;50.888;4.746;2023-04-03T18:09:36;10.40;59.00
21570;DHT22;57598;50.888;4.746;2023-04-03T18:12:06;10.40;59.60
21570;DHT22;57598;50.888;4.746;2023-04-03T18:14:35;10.30;59.70
21570;DHT22;57598;50.888;4.746;2023-04-03T18:17:03;10.20;60.10
21570;DHT22;57598;50.888;4.746;2023-04-03T18:19:30;10.10;60.50
21570;DHT22;57598;50.888;4.746;2023-04-03T18:22:01;10.00;60.40
21570;DHT22;57598;50.888;4.746;2023-04-03T18:24:31;10.00;60.60
21570;DHT22;57598;50.888;4.746;2023-04-03T18:27:02;9.90;61.00
21570;DHT22;57598;50.888;4.746;2023-04-03T18:29:32;9.90;61.00
21570;DHT22;57598;50.888;4.746;2023-04-03T18:32:02;9.90;61.30
21570;DHT22;57598;50.888;4.746;2023-04-03T18:34:29;9.90;61.60
21570;DHT22;57598;50.888;4.746;2023-04-03T18:36:57;9.70;62.00
21570;DHT22;57598;50.888;4.746;2023-04-03T18:39:24;9.60;61.80
21570;DHT22;57598;50.888;4.746;2023-04-03T18:41:51;9.60;62.00
21570;DHT22;57598;50.888;4.746;2023-04-03T18:44:21;9.50;62.20
21570;DHT22;57598;50.888;4.746;2023-04-03T18:46:49;9.50;62.30
21570;DHT22;57598;50.888;4.746;2023-04-03T18:49:17;9.40;62.40
21570;DHT22;57598;50.888;4.746;2023-04-03T18:51:44;9.40;62.60
21570;DHT22;57598;50.888;4.746;2023-04-03T18:54:11;9.40;64.00
21570;DHT22;57598;50.888;4.746;2023-04-03T18:56:38;9.30;62.90
21570;DHT22;57598;50.888;4.746;2023-04-03T18:59:06;9.30;63.90
21570;DHT22;57598;50.888;4.746;2023-04-03T19:01:34;9.20;63.30
21570;DHT22;57598;50.888;4.746;2023-04-03T19:04:02;9.20;63.20
21570;DHT22;57598;50.888;4.746;2023-04-03T19:06:30;9.10;63.30
21570;DHT22;57598;50.888;4.746;2023-04-03T19:08:58;9.10;63.60
21570;DHT22;57598;50.888;4.746;2023-04-03T19:11:25;9.10;63.90
21570;DHT22;57598;50.888;4.746;2023-04-03T19:13:53;9.10;63.90
21570;DHT22;57598;50.888;4.746;2023-04-03T19:16:23;9.00;64.40
21570;DHT22;57598;50.888;4.746;2023-04-03T19:18:52;8.90;64.20
21570;DHT22;57598;50.888;4.746;2023-04-03T19:21:37;8.90;64.40
21570;DHT22;57598;50.888;4.746;2023-04-03T19:24:06;8.90;64.30
21570;DHT22;57598;50.888;4.746;2023-04-03T19:26:33;8.80;65.30
21570;DHT22;57598;50.888;4.746;2023-04-03T19:29:00;8.80;64.90
21570;DHT22;57598;50.888;4.746;2023-04-03T19:31:28;8.70;65.30
21570;DHT22;57598;50.888;4.746;2023-04-03T19:33:57;8.70;65.50
21570;DHT22;57598;50.888;4.746;2023-04-03T19:36:24;8.60;65.90
21570;DHT22;57598;50.888;4.746;2023-04-03T19:38:52;8.60;66.00
21570;DHT22;57598;50.888;4.746;2023-04-03T19:41:20;8.60;66.20
21570;DHT22;57598;50.888;4.746;2023-04-03T19:43:50;8.50;66.00
21570;DHT22;57598;50.888;4.746;2023-04-03T19:46:18;8.50;66.60
21570;DHT22;57598;50.888;4.746;2023-04-03T19:48:45;8.50;67.70
21570;DHT22;57598;50.888;4.746;2023-04-03T19:51:13;8.40;67.50
21570;DHT22;57598;50.888;4.746;2023-04-03T19:53:43;8.30;67.70
21570;DHT22;57598;50.888;4.746;2023-04-03T19:56:12;8.30;68.70
21570;DHT22;57598;50.888;4.746;2023-04-03T19:58:42;8.30;68.20
21570;DHT22;57598;50.888;4.746;2023-04-03T20:01:09;8.30;68.40
21570;DHT22;57598;50.888;4.746;2023-04-03T20:03:38;8.30;68.80
21570;DHT22;57598;50.888;4.746;2023-04-03T20:06:06;8.30;68.80
21570;DHT22;57598;50.888;4.746;2023-04-03T20:08:34;8.30;69.20
21570;DHT22;57598;50.888;4.746;2023-04-03T20:11:02;8.20;70.30
21570;DHT22;57598;50.888;4.746;2023-04-03T20:13:30;8.20;69.60
21570;DHT22;57598;50.888;4.746;2023-04-03T20:16:01;8.20;70.20
21570;DHT22;57598;50.888;4.746;2023-04-03T20:18:28;8.20;70.70
21570;DHT22;57598;50.888;4.746;2023-04-03T20:20:56;8.10;70.50
21570;DHT22;57598;50.888;4.746;2023-04-03T20:23:25;8.10;70.20
21570;DHT22;57598;50.888;4.746;2023-04-03T20:25:54;7.90;70.60
21570;DHT22;57598;50.888;4.746;2023-04-03T20:28:22;7.80;71.50
21570;DHT22;57598;50.888;4.746;2023-04-03T20:30:50;7.90;71.70
21570;DHT22;57598;50.888;4.746;2023-04-03T20:33:20;7.80;72.70
21570;DHT22;57598;50.888;4.746;2023-04-03T20:35:48;7.80;72.40
21570;DHT22;57598;50.888;4.746;2023-04-03T20:38:16;7.80;72.90
21570;DHT22;57598;50.888;4.746;2023-04-03T20:40:43;7.90;72.70
21570;DHT22;57598;50.888;4.746;2023-04-03T20:43:12;7.70;73.40
21570;DHT22;57598;50.888;4.746;2023-04-03T20:45:39;7.60;73.50
21570;DHT22;57598;50.888;4.746;2023-04-03T20:48:06;7.60;74.90
21570;DHT22;57598;50.888;4.746;2023-04-03T20:50:33;7.50;75.00
21570;DHT22;57598;50.888;4.746;2023-04-03T20:53:01;7.50;74.80
21570;DHT22;57598;50.888;4.746;2023-04-03T20:55:28;7.50;75.20
21570;DHT22;57598;50.888;4.746;2023-04-03T20:57:57;7.40;75.40
21570;DHT22;57598;50.888;4.746;2023-04-03T21:00:27;7.40;75.70
21570;DHT22;57598;50.888;4.746;2023-04-03T21:03:01;7.30;75.90
21570;DHT22;57598;50.888;4.746;2023-04-03T21:05:28;7.30;76.40
21570;DHT22;57598;50.888;4.746;2023-04-03T21:19:40;7.10;77.70
21570;DHT22;57598;50.888;4.746;2023-04-03T21:22:11;7.10;77.80
21570;DHT22;57598;50.888;4.746;2023-04-03T21:24:38;7.00;78.10
21570;DHT22;57598;50.888;4.746;2023-04-03T21:27:06;7.00;77.90
21570;DHT22;57598;50.888;4.746;2023-04-03T21:29:33;7.00;78.10
21570;DHT22;57598;50.888;4.746;2023-04-03T21:32:00;7.00;77.80
21570;DHT22;57598;50.888;4.746;2023-04-03T21:34:28;6.90;78.40
21570;DHT22;57598;50.888;4.746;2023-04-03T21:37:00;6.80;78.30
21570;DHT22;57598;50.888;4.746;2023-04-03T21:39:28;6.80;79.00
21570;DHT22;57598;50.888;4.746;2023-04-03T21:41:55;6.80;79.20
21570;DHT22;57598;50.888;4.746;2023-04-03T21:44:22;6.70;79.30
21570;DHT22;57598;50.888;4.746;2023-04-03T21:46:50;6.70;79.80
21570;DHT22;57598;50.888;4.746;2023-04-03T21:49:19;6.60;79.80
21570;DHT22;57598;50.888;4.746;2023-04-03T21:51:47;6.60;79.70
21570;DHT22;57598;50.888;4.746;2023-04-03T21:54:16;6.70;79.60
21570;DHT22;57598;50.888;4.746;2023-04-03T21:56:43;6.60;79.80
21570;DHT22;57598;50.888;4.746;2023-04-03T21:59:12;6.50;80.40
21570;DHT22;57598;50.888;4.746;2023-04-03T22:01:39;6.50;80.30